createdAt,value
2023-03-26T00:02:08.230Z,63.72
2023-03-26T00:04:36.999Z,64.13
2023-03-26T00:07:05.843Z,63.02
2023-03-26T00:09:35.814Z,63.03
2023-03-26T00:12:05.155Z,63.84
2023-03-26T00:14:33.640Z,63.22
2023-03-26T00:17:02.612Z,63.51
2023-03-26T00:19:32.306Z,65.08
2023-03-26T00:22:03.663Z,64.17
2023-03-26T00:24:32.364Z,65.10
2023-03-26T00:27:02.760Z,64.33
2023-03-26T00:29:33.326Z,63.60
2023-03-26T00:32:02.287Z,63.12
2023-03-26T00:34:30.994Z,63.40
2023-03-26T00:37:02.803Z,63.46
2023-03-26T00:39:35.751Z,64.55
2023-03-26T00:42:08.477Z,68.72
2023-03-26T00:44:38.208Z,71.09
2023-03-26T00:47:07.866Z,69.33
2023-03-26T00:49:36.566Z,70.35
2023-03-26T00:52:08.762Z,72.25
2023-03-26T00:54:38.161Z,70.57
2023-03-26T00:57:10.533Z,68.75
2023-03-26T00:59:39.288Z,68.91
2023-03-26T01:02:10.677Z,67.69
2023-03-26T01:04:39.593Z,66.85
2023-03-26T01:07:14.199Z,67.53
2023-03-26T01:09:50.513Z,66.89
2023-03-26T01:12:24.060Z,65.62
2023-03-26T01:14:56.718Z,66.19
2023-03-26T01:17:25.966Z,65.42
2023-03-26T01:20:05.680Z,65.21
2023-03-26T01:22:37.800Z,65.62
2023-03-26T01:25:09.672Z,63.88
2023-03-26T01:27:43.722Z,63.83
2023-03-26T01:30:20.925Z,63.85
2023-03-26T01:33:00.845Z,62.64
2023-03-26T01:35:45.914Z,62.24
2023-03-26T01:38:27.912Z,62.08
2023-03-26T01:41:06.324Z,61.95
2023-03-26T01:43:47.079Z,61.31
2023-03-26T01:46:17.246Z,61.43
2023-03-26T01:48:48.033Z,61.20
2023-03-26T01:51:28.792Z,61.39
2023-03-26T01:53:58.589Z,61.35
2023-03-26T01:56:37.150Z,61.14
2023-03-26T01:59:18.832Z,61.00
2023-03-26T02:01:57.455Z,60.48
2023-03-26T02:04:30.919Z,60.51
2023-03-26T02:07:05.773Z,60.78
2023-03-26T02:09:42.086Z,60.35
2023-03-26T02:12:12.717Z,60.51
2023-03-26T02:14:42.547Z,59.93
2023-03-26T02:17:11.225Z,60.60
2023-03-26T02:19:42.363Z,60.38
2023-03-26T02:22:15.834Z,60.33
2023-03-26T02:24:46.822Z,60.49
2023-03-26T02:27:18.547Z,60.28
2023-03-26T02:29:50.306Z,60.10
2023-03-26T02:32:22.417Z,60.51
2023-03-26T02:34:51.733Z,60.26
2023-03-26T02:37:21.089Z,60.41
2023-03-26T02:39:55.850Z,60.25
2023-03-26T02:42:32.900Z,60.46
2023-03-26T02:45:01.913Z,60.00
2023-03-26T02:47:51.133Z,60.34
2023-03-26T02:50:46.129Z,60.29
2023-03-26T02:53:44.353Z,60.02
2023-03-26T02:56:36.107Z,60.21
2023-03-26T02:59:18.484Z,60.02
2023-03-26T03:01:52.315Z,60.48
2023-03-26T03:04:22.510Z,60.23
2023-03-26T03:06:53.123Z,60.18
2023-03-26T03:09:22.610Z,60.09
2023-03-26T03:12:09.842Z,59.80
2023-03-26T03:14:40.863Z,60.91
2023-03-26T03:17:09.878Z,61.01
2023-03-26T03:19:38.742Z,60.35
2023-03-26T03:22:07.666Z,60.45
2023-03-26T03:24:38.769Z,60.37
2023-03-26T03:27:08.141Z,60.92
2023-03-26T03:29:42.526Z,60.64
2023-03-26T03:32:43.726Z,60.24
2023-03-26T03:35:13.166Z,60.29
2023-03-26T03:37:45.120Z,60.21
2023-03-26T03:40:14.361Z,59.81
2023-03-26T03:42:43.778Z,59.80
2023-03-26T03:45:15.440Z,59.98
2023-03-26T03:48:02.797Z,59.72
2023-03-26T03:50:39.660Z,59.82
2023-03-26T03:53:30.494Z,59.78
2023-03-26T03:56:02.283Z,59.42
2023-03-26T03:59:00.231Z,59.55
2023-03-26T04:01:36.157Z,59.85
2023-03-26T04:04:10.318Z,60.62
2023-03-26T04:07:00.346Z,60.45
2023-03-26T04:09:36.593Z,60.47
2023-03-26T04:12:14.127Z,59.99
2023-03-26T04:15:03.430Z,60.25
2023-03-26T04:17:42.932Z,61.27
2023-03-26T04:20:15.832Z,60.54
2023-03-26T04:22:47.300Z,60.01
2023-03-26T04:25:18.578Z,60.78
2023-03-26T04:27:51.162Z,60.30
2023-03-26T04:30:42.438Z,60.45
2023-03-26T04:33:40.224Z,59.81
2023-03-26T04:36:11.687Z,60.71
2023-03-26T04:38:43.711Z,61.42
2023-03-26T04:41:15.210Z,60.48
2023-03-26T04:43:53.541Z,60.82
2023-03-26T04:46:53.032Z,60.99
2023-03-26T04:49:30.450Z,60.33
2023-03-26T04:51:59.316Z,60.24
2023-03-26T04:55:09.128Z,60.72
2023-03-26T04:57:46.157Z,59.96
2023-03-26T05:00:29.295Z,60.72
2023-03-26T05:03:01.604Z,60.68
2023-03-26T05:05:32.132Z,60.62
2023-03-26T05:08:02.245Z,59.33
2023-03-26T05:10:31.098Z,59.26
2023-03-26T05:13:10.458Z,59.80
2023-03-26T05:15:41.833Z,59.63
2023-03-26T05:18:40.005Z,59.29
2023-03-26T05:21:11.232Z,58.61
2023-03-26T05:23:41.958Z,59.43
2023-03-26T05:26:20.071Z,58.92
2023-03-26T05:28:49.929Z,58.77
2023-03-26T05:31:28.178Z,59.40
2023-03-26T05:34:00.514Z,58.92
2023-03-26T05:36:30.964Z,58.50
2023-03-26T05:39:12.889Z,57.90
2023-03-26T05:42:07.872Z,57.28
2023-03-26T05:44:55.431Z,57.12
2023-03-26T05:47:28.809Z,57.49
2023-03-26T05:49:59.260Z,56.57
2023-03-26T05:52:30.287Z,56.69
2023-03-26T05:55:33.440Z,56.75
2023-03-26T05:58:20.879Z,56.21
2023-03-26T06:01:17.130Z,56.12
2023-03-26T06:04:05.993Z,56.43
2023-03-26T06:06:40.663Z,56.30
2023-03-26T06:09:12.138Z,56.75
2023-03-26T06:11:41.980Z,56.44
2023-03-26T06:14:10.913Z,56.49
2023-03-26T06:16:44.565Z,56.15
2023-03-26T06:19:23.333Z,55.64
2023-03-26T06:21:58.350Z,55.13
2023-03-26T06:24:34.924Z,53.92
2023-03-26T06:27:26.775Z,54.07
2023-03-26T06:30:30.405Z,53.06
2023-03-26T06:33:08.818Z,52.64
2023-03-26T06:35:45.573Z,52.78
2023-03-26T06:38:16.780Z,52.87
2023-03-26T06:40:47.236Z,54.04
2023-03-26T06:43:39.518Z,52.99
2023-03-26T06:46:34.415Z,52.69
2023-03-26T06:49:43.135Z,51.71
2023-03-26T06:52:20.497Z,51.29
2023-03-26T06:55:01.741Z,50.74
2023-03-26T06:57:51.772Z,49.50
2023-03-26T07:00:22.081Z,49.91
2023-03-26T07:03:09.939Z,49.48
2023-03-26T07:05:57.445Z,48.94
2023-03-26T07:08:44.804Z,49.22
2023-03-26T07:11:36.995Z,48.19
2023-03-26T07:14:27.975Z,48.57
2023-03-26T07:17:12.902Z,47.26
2023-03-26T07:19:52.722Z,47.46
2023-03-26T07:22:26.570Z,46.55
2023-03-26T07:25:21.881Z,46.86
2023-03-26T07:28:04.262Z,47.60
2023-03-26T07:30:57.594Z,47.15
2023-03-26T07:33:49.836Z,47.17
2023-03-26T07:36:50.005Z,46.30
2023-03-26T07:39:42.704Z,45.94
2023-03-26T07:42:38.763Z,46.29
2023-03-26T07:45:33.941Z,45.81
2023-03-26T07:48:25.601Z,44.53
2023-03-26T07:51:21.687Z,44.70
2023-03-26T07:54:17.258Z,44.19
2023-03-26T07:57:08.288Z,43.88
2023-03-26T07:59:43.961Z,42.86
2023-03-26T08:02:43.280Z,42.54
2023-03-26T08:05:36.602Z,41.98
2023-03-26T08:08:32.636Z,41.18
2023-03-26T08:11:39.589Z,40.42
2023-03-26T08:14:26.278Z,39.75
2023-03-26T08:17:02.382Z,39.61
2023-03-26T08:19:51.851Z,39.40
2023-03-26T08:22:28.094Z,38.06
2023-03-26T08:25:17.909Z,38.36
2023-03-26T08:27:56.455Z,38.61
2023-03-26T08:30:28.108Z,38.19
2023-03-26T08:32:59.731Z,36.81
2023-03-26T08:35:29.902Z,37.43
2023-03-26T08:38:00.326Z,38.53
2023-03-26T08:40:58.305Z,38.05
2023-03-26T08:43:56.366Z,38.78
2023-03-26T08:46:51.987Z,40.04
2023-03-26T08:49:57.784Z,39.73
2023-03-26T08:53:12.109Z,37.84
2023-03-26T08:55:53.833Z,36.28
2023-03-26T08:59:25.725Z,36.53
2023-03-26T09:02:18.423Z,35.14
2023-03-26T09:05:27.397Z,34.66
2023-03-26T09:08:21.423Z,34.30
2023-03-26T09:11:09.990Z,33.89
2023-03-26T09:14:05.751Z,34.16
2023-03-26T09:17:10.298Z,33.03
2023-03-26T09:20:06.172Z,33.69
2023-03-26T09:23:15.197Z,34.17
2023-03-26T09:26:02.872Z,33.54
2023-03-26T09:29:15.721Z,32.91
2023-03-26T09:32:12.923Z,32.61
2023-03-26T09:35:00.573Z,32.77
2023-03-26T09:37:56.157Z,33.67
2023-03-26T09:40:36.859Z,34.36
2023-03-26T09:43:37.786Z,33.32
2023-03-26T09:46:23.939Z,33.03
2023-03-26T09:49:25.153Z,33.27
2023-03-26T09:52:20.676Z,31.17
2023-03-26T09:55:08.457Z,31.73
2023-03-26T09:58:03.342Z,31.67
2023-03-26T10:00:42.718Z,29.48
2023-03-26T10:03:27.363Z,31.60
2023-03-26T10:06:11.727Z,30.03
2023-03-26T10:08:55.475Z,29.71
2023-03-26T10:11:33.251Z,30.19
2023-03-26T10:14:13.513Z,30.24
2023-03-26T10:16:56.936Z,30.23
2023-03-26T10:19:53.667Z,28.91
2023-03-26T10:22:37.855Z,28.90
2023-03-26T10:25:30.993Z,29.47
2023-03-26T10:28:15.758Z,28.30
2023-03-26T10:31:03.597Z,27.10
2023-03-26T10:33:43.108Z,26.57
2023-03-26T10:36:29.782Z,26.56
2023-03-26T10:39:37.415Z,26.26
2023-03-26T10:42:22.540Z,25.47
2023-03-26T10:45:07.969Z,25.36
2023-03-26T10:47:52.484Z,26.09
2023-03-26T10:51:02.190Z,25.86
2023-03-26T10:53:39.427Z,25.85
2023-03-26T10:56:19.761Z,25.53
2023-03-26T10:58:49.886Z,24.31
2023-03-26T11:01:33.621Z,24.77
2023-03-26T11:04:16.353Z,24.20
2023-03-26T11:06:55.543Z,24.70
2023-03-26T11:09:37.798Z,24.04
2023-03-26T11:12:26.263Z,24.45
2023-03-26T11:15:11.839Z,24.59
2023-03-26T11:17:51.553Z,24.06
2023-03-26T11:20:27.753Z,24.27
2023-03-26T11:23:11.173Z,23.77
2023-03-26T11:25:57.906Z,23.55
2023-03-26T11:28:41.242Z,23.31
2023-03-26T11:31:42.698Z,21.95
2023-03-26T11:34:17.545Z,21.80
2023-03-26T11:36:52.787Z,19.86
2023-03-26T11:39:26.624Z,20.33
2023-03-26T11:42:07.349Z,20.47
2023-03-26T11:44:49.262Z,20.63
2023-03-26T11:47:24.751Z,20.95
2023-03-26T11:49:56.474Z,20.73
2023-03-26T11:52:26.964Z,20.49
2023-03-26T11:54:58.574Z,21.02
2023-03-26T11:57:33.473Z,20.59
2023-03-26T12:00:16.834Z,19.04
2023-03-26T12:02:47.801Z,17.70
2023-03-26T12:05:22.254Z,18.48
2023-03-26T12:07:55.946Z,18.28
2023-03-26T12:10:28.234Z,18.21
2023-03-26T12:13:01.525Z,17.09
2023-03-26T12:15:32.234Z,17.87
2023-03-26T12:18:24.337Z,17.66
2023-03-26T12:21:04.854Z,19.01
2023-03-26T12:23:43.721Z,19.63
2023-03-26T12:26:31.815Z,19.30
2023-03-26T12:29:08.503Z,18.91
2023-03-26T12:31:57.643Z,18.82
2023-03-26T12:34:34.911Z,19.22
2023-03-26T12:37:05.201Z,18.86
2023-03-26T12:40:07.391Z,18.21
2023-03-26T12:44:49.273Z,18.99
2023-03-26T12:45:24.800Z,18.93
2023-03-26T12:48:03.810Z,18.56
2023-03-26T12:50:54.886Z,18.48
2023-03-26T12:53:43.357Z,18.69
2023-03-26T12:56:21.938Z,18.21
2023-03-26T12:59:05.360Z,18.42
2023-03-26T13:01:47.727Z,18.78
2023-03-26T13:04:39.119Z,19.07
2023-03-26T13:07:20.797Z,18.33
2023-03-26T13:10:06.506Z,18.12
2023-03-26T13:12:47.117Z,18.35
2023-03-26T13:15:25.960Z,18.00
2023-03-26T13:18:13.399Z,18.74
2023-03-26T13:20:52.150Z,17.75
2023-03-26T13:23:34.662Z,18.05
2023-03-26T13:26:15.564Z,17.75
2023-03-26T13:28:53.286Z,16.99
2023-03-26T13:31:27.013Z,17.19
2023-03-26T13:34:11.116Z,16.86
2023-03-26T13:36:49.261Z,16.83
2023-03-26T13:39:29.062Z,16.11
2023-03-26T13:42:14.661Z,16.35
2023-03-26T13:45:04.846Z,15.66
2023-03-26T13:47:38.217Z,15.73
2023-03-26T13:50:20.049Z,15.86
2023-03-26T13:52:53.134Z,15.79
2023-03-26T13:55:29.458Z,15.92
2023-03-26T13:58:05.103Z,16.21
2023-03-26T14:00:49.736Z,16.56
2023-03-26T14:03:25.534Z,16.31
2023-03-26T14:06:01.442Z,16.55
2023-03-26T14:08:37.393Z,16.54
2023-03-26T14:11:11.916Z,16.63
2023-03-26T14:13:48.930Z,17.24
2023-03-26T14:16:22.710Z,16.86
2023-03-26T14:19:04.638Z,17.13
2023-03-26T14:21:56.262Z,16.97
2023-03-26T14:24:43.615Z,16.44
2023-03-26T14:27:27.940Z,16.92
2023-03-26T14:30:18.687Z,16.75
2023-03-26T14:33:04.277Z,16.56
2023-03-26T14:35:38.445Z,17.10
2023-03-26T14:38:45.468Z,17.35
2023-03-26T14:41:26.293Z,17.63
2023-03-26T14:44:47.800Z,17.29
2023-03-26T14:47:20.042Z,17.51
2023-03-26T14:50:20.319Z,17.78
2023-03-26T14:52:51.578Z,18.15
2023-03-26T14:55:42.565Z,18.27
2023-03-26T14:58:41.336Z,18.67
2023-03-26T15:01:25.280Z,18.54
2023-03-26T15:04:35.405Z,18.89
2023-03-26T15:07:53.901Z,18.71
2023-03-26T15:11:04.293Z,18.81
2023-03-26T15:13:56.961Z,19.19
2023-03-26T15:17:00.421Z,19.11
2023-03-26T15:20:05.552Z,19.25
2023-03-26T15:23:05.504Z,19.13
2023-03-26T15:26:09.942Z,18.88
2023-03-26T15:29:19.104Z,18.83
2023-03-26T15:32:18.990Z,18.87
2023-03-26T15:35:24.411Z,19.13
2023-03-26T15:38:28.849Z,19.26
2023-03-26T15:41:12.528Z,19.18
2023-03-26T15:44:50.802Z,19.03
2023-03-26T15:47:44.007Z,19.27
2023-03-26T15:50:33.128Z,19.37
2023-03-26T15:53:18.656Z,19.81
2023-03-26T15:56:01.795Z,19.90
2023-03-26T15:58:36.848Z,20.11
2023-03-26T16:01:21.418Z,20.51
2023-03-26T16:03:59.668Z,20.68
2023-03-26T16:06:41.569Z,20.88
2023-03-26T16:09:32.554Z,21.17
2023-03-26T16:12:25.192Z,21.44
2023-03-26T16:15:21.215Z,21.70
2023-03-26T16:18:29.960Z,21.80
2023-03-26T16:21:41.193Z,22.51
2023-03-26T16:24:25.921Z,22.69
2023-03-26T16:27:16.448Z,22.85
2023-03-26T16:30:33.717Z,23.15
2023-03-26T16:33:15.878Z,23.62
2023-03-26T16:36:25.970Z,23.37
2023-03-26T16:39:03.699Z,23.90
2023-03-26T16:41:33.710Z,23.82
2023-03-26T16:44:14.791Z,23.93
2023-03-26T16:46:53.387Z,23.87
2023-03-26T16:49:33.855Z,24.13
2023-03-26T16:52:16.725Z,24.72
2023-03-26T16:54:52.675Z,24.64
2023-03-26T16:57:28.873Z,24.68
2023-03-26T17:00:30.139Z,24.28
2023-03-26T17:03:13.814Z,25.03
2023-03-26T17:06:02.185Z,24.73
2023-03-26T17:08:42.649Z,25.11
2023-03-26T17:11:23.816Z,25.03
2023-03-26T17:14:04.368Z,25.02
2023-03-26T17:16:36.213Z,24.84
2023-03-26T17:19:15.337Z,24.96
2023-03-26T17:21:56.628Z,25.10
2023-03-26T17:24:40.721Z,24.98
2023-03-26T17:27:34.857Z,25.13
2023-03-26T17:30:26.052Z,25.42
2023-03-26T17:32:59.986Z,25.44
2023-03-26T17:35:42.175Z,25.63
2023-03-26T17:38:50.180Z,26.02
2023-03-26T17:41:52.623Z,26.14
2023-03-26T17:44:47.330Z,26.14
2023-03-26T17:47:32.787Z,26.34
2023-03-26T17:50:05.384Z,26.39
2023-03-26T17:52:50.630Z,26.53
2023-03-26T17:55:22.616Z,26.83
2023-03-26T17:57:55.372Z,27.25
2023-03-26T18:00:30.377Z,27.36
2023-03-26T18:03:04.046Z,27.52
2023-03-26T18:05:38.721Z,27.34
2023-03-26T18:08:31.591Z,27.45
2023-03-26T18:11:29.341Z,27.72
2023-03-26T18:14:19.748Z,27.76
2023-03-26T18:16:52.749Z,28.03
2023-03-26T18:19:23.996Z,28.00
2023-03-26T18:21:54.588Z,27.96
2023-03-26T18:24:27.811Z,27.78
2023-03-26T18:27:00.227Z,28.04
2023-03-26T18:29:31.261Z,28.20
2023-03-26T18:32:03.684Z,28.23
2023-03-26T18:34:34.700Z,28.25
2023-03-26T18:37:16.805Z,28.45
2023-03-26T18:39:58.135Z,28.55
2023-03-26T18:42:29.391Z,28.46
2023-03-26T18:45:00.295Z,28.57
2023-03-26T18:47:32.971Z,28.88
2023-03-26T18:50:02.384Z,28.65
2023-03-26T18:52:33.350Z,28.82
2023-03-26T18:55:04.598Z,29.07
2023-03-26T18:57:33.307Z,29.12
2023-03-26T19:00:20.026Z,28.84
2023-03-26T19:02:55.651Z,28.93
2023-03-26T19:05:25.314Z,29.49
2023-03-26T19:07:54.314Z,29.31
2023-03-26T19:10:25.233Z,29.16
2023-03-26T19:12:57.855Z,29.69
2023-03-26T19:15:29.258Z,29.59
2023-03-26T19:18:07.140Z,29.41
2023-03-26T19:20:42.114Z,29.42
2023-03-26T19:23:15.845Z,30.02
2023-03-26T19:25:48.638Z,29.99
2023-03-26T19:28:21.809Z,30.22
2023-03-26T19:30:55.637Z,30.28
2023-03-26T19:33:34.152Z,30.47
2023-03-26T19:36:05.938Z,30.45
2023-03-26T19:38:43.160Z,30.60
2023-03-26T19:41:20.516Z,30.38
2023-03-26T19:43:50.769Z,30.41
2023-03-26T19:46:22.989Z,30.64
2023-03-26T19:48:54.882Z,31.03
2023-03-26T19:51:26.280Z,30.84
2023-03-26T19:53:56.625Z,31.21
2023-03-26T19:56:25.838Z,30.94
2023-03-26T19:58:55.712Z,31.14
2023-03-26T20:01:27.286Z,31.22
2023-03-26T20:04:00.818Z,31.15
2023-03-26T20:06:42.589Z,31.31
2023-03-26T20:09:14.224Z,31.42
2023-03-26T20:11:43.448Z,31.65
2023-03-26T20:14:16.797Z,31.74
2023-03-26T20:16:46.354Z,31.35
2023-03-26T20:19:16.791Z,31.53
2023-03-26T20:21:46.177Z,31.53
2023-03-26T20:24:17.607Z,31.86
2023-03-26T20:26:47.729Z,31.70
2023-03-26T20:29:16.579Z,32.31
2023-03-26T20:31:46.004Z,31.74
2023-03-26T20:34:19.989Z,32.01
2023-03-26T20:36:54.391Z,32.25
2023-03-26T20:39:23.656Z,32.26
2023-03-26T20:41:54.165Z,32.12
2023-03-26T20:44:23.087Z,32.36
2023-03-26T20:46:53.061Z,32.45
2023-03-26T20:49:23.289Z,32.56
2023-03-26T20:51:52.985Z,33.06
2023-03-26T20:54:23.741Z,32.62
2023-03-26T20:56:54.599Z,32.79
2023-03-26T20:59:26.859Z,32.89
2023-03-26T21:01:59.377Z,32.75
2023-03-26T21:04:29.733Z,32.87
2023-03-26T21:07:07.233Z,33.16
2023-03-26T21:09:40.527Z,32.63
2023-03-26T21:12:17.920Z,32.92
2023-03-26T21:14:47.349Z,32.63
2023-03-26T21:17:19.089Z,32.84
2023-03-26T21:19:51.093Z,32.35
2023-03-26T21:22:34.435Z,32.22
2023-03-26T21:25:11.876Z,32.31
2023-03-26T21:27:51.611Z,32.17
2023-03-26T21:30:21.211Z,31.49
2023-03-26T21:32:50.720Z,31.35
2023-03-26T21:35:22.179Z,31.09
2023-03-26T21:37:52.700Z,31.10
2023-03-26T21:40:21.689Z,31.14
2023-03-26T21:42:52.649Z,30.99
2023-03-26T21:45:22.973Z,30.80
2023-03-26T21:47:52.516Z,30.82
2023-03-26T21:50:24.212Z,31.34
2023-03-26T21:52:53.730Z,31.30
2023-03-26T21:55:24.404Z,31.34
2023-03-26T21:58:37.978Z,31.04
2023-03-26T22:01:29.432Z,31.20
2023-03-26T22:04:09.711Z,31.44
2023-03-26T22:06:45.030Z,31.18
2023-03-26T22:09:18.480Z,31.16
2023-03-26T22:11:49.393Z,31.35
2023-03-26T22:14:18.509Z,31.04
2023-03-26T22:16:47.175Z,31.25
2023-03-26T22:19:17.084Z,31.46
2023-03-26T22:21:47.196Z,31.32
2023-03-26T22:24:16.154Z,31.27
2023-03-26T22:26:45.238Z,31.48
2023-03-26T22:29:14.653Z,31.48
2023-03-26T22:31:43.215Z,31.59
2023-03-26T22:34:13.171Z,31.69
2023-03-26T22:36:41.920Z,31.77
2023-03-26T22:39:12.217Z,31.62
2023-03-26T22:41:40.862Z,31.60
2023-03-26T22:44:19.630Z,31.70
2023-03-26T22:46:51.398Z,31.68
2023-03-26T22:49:21.445Z,31.55
2023-03-26T22:51:50.397Z,31.29
2023-03-26T22:54:20.983Z,31.55
2023-03-26T22:56:49.766Z,31.02
2023-03-26T22:59:18.805Z,31.24
2023-03-26T23:01:47.562Z,31.59
2023-03-26T23:04:31.666Z,31.66
2023-03-26T23:07:01.217Z,31.39
2023-03-26T23:09:31.604Z,31.32
2023-03-26T23:12:00.548Z,31.59
2023-03-26T23:14:32.465Z,31.62
2023-03-26T23:17:01.531Z,31.88
2023-03-26T23:19:34.075Z,32.02
2023-03-26T23:22:02.786Z,31.92
2023-03-26T23:24:33.014Z,31.70
2023-03-26T23:27:01.820Z,31.89
2023-03-26T23:29:31.883Z,31.29
2023-03-26T23:32:00.534Z,31.40
2023-03-26T23:34:29.454Z,31.47
2023-03-26T23:36:58.122Z,31.11
2023-03-26T23:39:28.628Z,31.00
2023-03-26T23:41:58.670Z,30.93
2023-03-26T23:44:29.457Z,31.04
2023-03-26T23:47:00.648Z,31.03
2023-03-26T23:49:29.740Z,30.98
2023-03-26T23:51:58.379Z,30.76
2023-03-26T23:54:27.563Z,30.75
2023-03-26T23:56:57.848Z,31.06
2023-03-26T23:59:28.280Z,30.96
